Time,TemperatureF,DewpointF,PressureIn,WindDirection,WindDirectionDegrees,WindSpeedMPH,WindSpeedGustMPH,Humidity,HourlyPrecipIn,Conditions,Clouds,dailyrainin,SoftwareType,DateUTC
2013-04-11 00:01:00,34.0,34.0,-100.00,WNW,295,16.0,23.0,99,-99.99,,,-99.99,,2013-04-11 05:01:00,
2013-04-11 00:02:00,34.0,34.0,-100.00,NW,305,14.0,21.0,99,-99.99,,,-99.99,,2013-04-11 05:02:00,
2013-04-11 00:11:00,34.0,34.0,-100.00,WNW,300,14.0,23.0,99,-99.99,,,-99.99,,2013-04-11 05:11:00,
2013-04-11 00:22:00,34.0,34.0,-100.00,WNW,295,16.0,24.0,99,-99.99,,,-99.99,,2013-04-11 05:22:00,
2013-04-11 00:31:00,33.0,33.0,-100.00,WNW,295,16.0,24.0,99,-99.99,,,-99.99,,2013-04-11 05:31:00,
2013-04-11 00:41:00,33.0,33.0,-100.00,WNW,300,16.0,23.0,99,-99.99,,,-99.99,,2013-04-11 05:41:00,
2013-04-11 01:01:00,33.0,33.0,-100.00,NW,305,16.0,26.0,99,-99.99,,,-99.99,,2013-04-11 06:01:00,
2013-04-11 01:11:00,33.0,33.0,-100.00,WNW,300,15.0,21.0,99,-99.99,,,-99.99,,2013-04-11 06:11:00,
2013-04-11 01:31:00,33.0,33.0,-100.00,WNW,295,14.0,19.0,99,-99.99,,,-99.99,,2013-04-11 06:31:00,
2013-04-11 01:41:00,33.0,33.0,-100.00,WNW,295,15.0,21.0,99,-99.99,,,-99.99,,2013-04-11 06:41:00,
2013-04-11 02:01:00,33.0,33.0,-100.00,WNW,300,15.0,26.0,99,-99.99,,,-99.99,,2013-04-11 07:01:00,
2013-04-11 02:11:00,33.0,33.0,-100.00,WNW,290,19.0,23.0,99,-99.99,,,-99.99,,2013-04-11 07:11:00,
2013-04-11 02:31:00,33.0,33.0,-100.00,WNW,290,14.0,26.0,99,-99.99,,,-99.99,,2013-04-11 07:31:00,
2013-04-11 02:41:00,33.0,32.0,-100.00,NW,310,14.0,24.0,99,-99.99,,,-99.99,,2013-04-11 07:41:00,
2013-04-11 03:01:00,33.0,32.0,-100.00,WNW,300,17.0,24.0,99,-99.99,,,-99.99,,2013-04-11 08:01:00,
2013-04-11 03:11:00,33.0,32.0,-100.00,WNW,300,14.0,21.0,99,-99.99,,,-99.99,,2013-04-11 08:11:00,
2013-04-11 03:22:00,33.0,33.0,-100.00,WNW,290,14.0,26.0,99,-99.99,,,-99.99,,2013-04-11 08:22:00,
2013-04-11 03:31:00,33.0,32.0,-100.00,WNW,300,12.0,23.0,99,-99.99,,,-99.99,,2013-04-11 08:31:00,
2013-04-11 04:11:00,33.0,32.0,-100.00,NW,305,13.0,20.0,98,-99.99,,,-99.99,,2013-04-11 09:11:00,
2013-04-11 04:31:00,33.0,32.0,-100.00,WNW,290,13.0,21.0,97,-99.99,,,-99.99,,2013-04-11 09:31:00,
2013-04-11 05:02:00,33.0,32.0,-100.00,NW,305,13.0,20.0,98,-99.99,,,-99.99,,2013-04-11 10:02:00,
2013-04-11 05:31:00,33.0,31.0,-100.00,WNW,290,10.0,16.0,94,-99.99,,,-99.99,,2013-04-11 10:31:00,
2013-04-11 06:01:00,33.0,31.0,-100.00,West,270,11.0,17.0,93,-99.99,,,-99.99,,2013-04-11 11:01:00,
2013-04-11 06:31:00,33.0,30.0,-100.00,West,270,15.0,20.0,92,-99.99,,,-99.99,,2013-04-11 11:31:00,
2013-04-11 06:41:00,33.0,30.0,-100.00,WNW,290,14.0,21.0,91,-99.99,,,-99.99,,2013-04-11 11:41:00,
2013-04-11 06:42:00,33.0,31.0,-100.00,West,270,11.0,17.0,93,-99.99,,,-99.99,,2013-04-11 11:42:00,
2013-04-11 06:52:00,33.0,31.0,-100.00,West,270,11.0,17.0,93,-99.99,,,-99.99,,2013-04-11 11:52:00,
2013-04-11 07:01:00,33.0,30.0,-100.00,West,280,11.0,19.0,91,-99.99,,,-99.99,,2013-04-11 12:01:00,
2013-04-11 07:11:00,33.0,30.0,-100.00,WNW,290,16.0,19.0,91,-99.99,,,-99.99,,2013-04-11 12:11:00,
2013-04-11 07:31:00,33.0,30.0,-100.00,WNW,285,14.0,17.0,89,-99.99,,,-99.99,,2013-04-11 12:31:00,
2013-04-11 07:41:00,32.0,29.0,-100.00,West,280,13.0,19.0,89,-99.99,,,-99.99,,2013-04-11 12:41:00,
2013-04-11 08:01:00,32.0,29.0,-100.00,West,270,11.0,17.0,89,-99.99,,,-99.99,,2013-04-11 13:01:00,
2013-04-11 08:11:00,32.0,29.0,-100.00,West,265,11.0,18.0,89,-99.99,,,-99.99,,2013-04-11 13:11:00,
2013-04-11 08:31:00,32.0,29.0,-100.00,West,260,13.0,17.0,88,-99.99,,,-99.99,,2013-04-11 13:31:00,
2013-04-11 08:41:00,32.0,28.0,-100.00,West,275,13.0,17.0,87,-99.99,,,-99.99,,2013-04-11 13:41:00,
2013-04-11 09:01:00,32.0,28.0,-100.00,West,280,14.0,21.0,84,-99.99,,,-99.99,,2013-04-11 14:01:00,
2013-04-11 11:01:00,34.0,28.0,-100.00,West,265,17.0,23.0,77,-99.99,,,-99.99,,2013-04-11 16:01:00,
2013-04-11 11:31:00,35.0,27.0,-100.00,West,280,16.0,22.0,73,-99.99,,,-99.99,,2013-04-11 16:31:00,
2013-04-11 11:41:00,35.0,27.0,-100.00,West,275,18.0,23.0,71,-99.99,,,-99.99,,2013-04-11 16:41:00,
2013-04-11 12:01:00,37.0,28.0,-100.00,West,270,19.0,25.0,69,-99.99,,,-99.99,,2013-04-11 17:01:00,
2013-04-11 12:10:00,36.0,27.0,-100.00,West,275,17.0,24.0,68,-99.99,,,-99.99,,2013-04-11 17:10:00,
2013-04-11 12:41:00,36.0,26.0,-100.00,West,270,17.0,24.0,67,-99.99,,,-99.99,,2013-04-11 17:41:00,
2013-04-11 14:10:00,39.0,26.0,-100.00,WNW,285,21.0,26.0,61,-99.99,,,-99.99,,2013-04-11 19:10:00,
2013-04-11 14:30:00,39.0,27.0,-100.00,WNW,285,19.0,27.0,60,-99.99,,,-99.99,,2013-04-11 19:30:00,
2013-04-11 14:32:00,38.0,27.0,-100.00,West,275,15.0,27.0,64,-99.99,,,-99.99,,2013-04-11 19:32:00,
2013-04-11 14:40:00,39.0,26.0,-100.00,WNW,295,15.0,25.0,59,-99.99,,,-99.99,,2013-04-11 19:40:00,
2013-04-11 14:43:00,39.0,27.0,-100.00,WNW,290,16.0,26.0,62,-99.99,,,-99.99,,2013-04-11 19:43:00,
2013-04-11 14:53:00,39.0,27.0,-100.00,WNW,290,16.0,26.0,62,-99.99,,,-99.99,,2013-04-11 19:53:00,
2013-04-11 15:00:00,40.0,26.0,-100.00,WNW,285,18.0,28.0,58,-99.99,,,-99.99,,2013-04-11 20:00:00,
2013-04-11 15:02:00,39.0,26.0,-100.00,WNW,285,21.0,26.0,61,-99.99,,,-99.99,,2013-04-11 20:02:00,
2013-04-11 15:11:00,40.0,26.0,-100.00,West,280,19.0,29.0,58,-99.99,,,-99.99,,2013-04-11 20:11:00,
2013-04-11 16:10:00,40.0,26.0,-100.00,WNW,300,17.0,28.0,56,-99.99,,,-99.99,,2013-04-11 21:10:00,
2013-04-11 16:40:00,40.0,25.0,-100.00,NW,310,23.0,35.0,54,-99.99,,,-99.99,,2013-04-11 21:40:00,
2013-04-11 17:01:00,40.0,25.0,-100.00,NW,305,23.0,30.0,54,-99.99,,,-99.99,,2013-04-11 22:01:00,
2013-04-11 17:30:00,40.0,26.0,-100.00,WNW,300,15.0,23.0,56,-99.99,,,-99.99,,2013-04-11 22:30:00,
2013-04-11 17:40:00,39.0,25.0,-100.00,WNW,300,15.0,26.0,56,-99.99,,,-99.99,,2013-04-11 22:40:00,
2013-04-11 18:00:00,40.0,26.0,-100.00,WNW,300,17.0,24.0,57,-99.99,,,-99.99,,2013-04-11 23:00:00,
2013-04-11 18:10:00,40.0,26.0,-100.00,WNW,290,19.0,26.0,57,-99.99,,,-99.99,,2013-04-11 23:10:00,
2013-04-11 18:30:00,39.0,26.0,-100.00,WNW,295,15.0,24.0,58,-99.99,,,-99.99,,2013-04-11 23:30:00,
2013-04-11 18:40:00,39.0,26.0,-100.00,WNW,290,19.0,26.0,58,-99.99,,,-99.99,,2013-04-11 23:40:00,
2013-04-11 19:00:00,39.0,25.0,-100.00,WNW,285,14.0,26.0,58,-99.99,,,-99.99,,2013-04-12 00:00:00,
2013-04-11 19:10:00,39.0,25.0,-100.00,WNW,285,18.0,24.0,58,-99.99,,,-99.99,,2013-04-12 00:10:00,
2013-04-11 19:30:00,38.0,25.0,-100.00,NW,305,14.0,24.0,58,-99.99,,,-99.99,,2013-04-12 00:30:00,
2013-04-11 19:40:00,38.0,25.0,-100.00,NW,305,11.0,19.0,58,-99.99,,,-99.99,,2013-04-12 00:40:00,
2013-04-11 20:00:00,38.0,25.0,-100.00,NW,315,12.0,16.0,58,-99.99,,,-99.99,,2013-04-12 01:00:00,
2013-04-11 20:10:00,38.0,25.0,-100.00,NW,305,7.0,11.0,58,-99.99,,,-99.99,,2013-04-12 01:10:00,
2013-04-11 20:30:00,38.0,25.0,-100.00,NW,315,11.0,16.0,58,-99.99,,,-99.99,,2013-04-12 01:30:00,
2013-04-11 20:40:00,38.0,25.0,-100.00,WNW,300,11.0,19.0,58,-99.99,,,-99.99,,2013-04-12 01:40:00,
2013-04-11 21:02:00,38.0,25.0,-100.00,WNW,295,11.0,19.0,58,-99.99,,,-99.99,,2013-04-12 02:02:00,
2013-04-11 22:00:00,38.0,25.0,-100.00,WNW,290,13.0,21.0,60,-99.99,,,-99.99,,2013-04-12 03:00:00,
2013-04-11 22:30:00,37.0,25.0,-100.00,WNW,295,10.0,16.0,60,-99.99,,,-99.99,,2013-04-12 03:30:00,
2013-04-11 22:40:00,37.0,25.0,-100.00,NW,305,8.0,17.0,60,-99.99,,,-99.99,,2013-04-12 03:40:00,
2013-04-11 22:43:00,38.0,25.0,-100.00,WNW,290,13.0,21.0,60,-99.99,,,-99.99,,2013-04-12 03:43:00,
2013-04-11 22:53:00,38.0,25.0,-100.00,WNW,290,13.0,21.0,60,-99.99,,,-99.99,,2013-04-12 03:53:00,
2013-04-11 23:00:00,36.0,25.0,-100.00,WNW,290,9.0,14.0,62,-99.99,,,-99.99,,2013-04-12 04:00:00,
2013-04-11 23:10:00,36.0,25.0,-100.00,WNW,295,11.0,16.0,63,-99.99,,,-99.99,,2013-04-12 04:10:00,
2013-04-11 23:30:00,35.0,25.0,-100.00,WNW,295,12.0,16.0,65,-99.99,,,-99.99,,2013-04-12 04:30:00,
2013-04-11 23:40:00,35.0,25.0,-100.00,WNW,295,10.0,14.0,66,-99.99,,,-99.99,,2013-04-12 04:40:00,